createdAt,value
2019-05-18T00:00:02.549Z,9.97
2019-05-18T00:03:05.508Z,9.97
2019-05-18T00:09:11.723Z,9.88
2019-05-18T00:11:48.797Z,9.80
2019-05-18T00:21:12.374Z,9.73
2019-05-18T00:24:08.805Z,9.66
2019-05-18T00:27:03.411Z,9.58
2019-05-18T00:32:53.457Z,9.64
2019-05-18T00:35:40.833Z,9.60
2019-05-18T00:41:32.278Z,9.58
2019-05-18T00:44:26.515Z,9.57
2019-05-18T00:50:02.122Z,9.57
2019-05-18T00:55:31.448Z,9.59
2019-05-18T00:58:31.034Z,9.53
2019-05-18T01:01:17.798Z,9.44
2019-05-18T01:04:02.550Z,9.45
2019-05-18T01:10:05.024Z,9.42
2019-05-18T01:13:12.901Z,9.37
2019-05-18T01:16:01.735Z,9.33
2019-05-18T01:21:52.872Z,9.21
2019-05-18T01:24:40.055Z,9.18
2019-05-18T01:31:14.890Z,9.20
2019-05-18T01:34:08.054Z,9.15
2019-05-18T01:37:18.006Z,9.10
2019-05-18T01:40:01.900Z,9.00
2019-05-18T01:42:53.222Z,9.03
2019-05-18T01:48:26.583Z,8.96
2019-05-18T01:54:16.159Z,9.01
2019-05-18T02:00:35.970Z,8.97
2019-05-18T02:03:35.238Z,8.96
2019-05-18T02:09:50.984Z,8.81
2019-05-18T02:13:02.903Z,8.66
2019-05-18T02:16:06.446Z,8.59
2019-05-18T02:18:34.496Z,8.56
2019-05-18T02:21:03.189Z,8.58
2019-05-18T02:26:18.986Z,8.58
2019-05-18T02:28:48.160Z,8.57
2019-05-18T02:33:54.816Z,8.66
2019-05-18T02:39:05.975Z,8.54
2019-05-18T02:41:34.651Z,8.44
2019-05-18T02:46:42.276Z,8.49
2019-05-18T02:49:11.334Z,8.46
2019-05-18T02:51:40.315Z,8.35
2019-05-18T02:54:09.046Z,8.26
2019-05-18T02:56:37.821Z,8.16
2019-05-18T03:01:55.876Z,8.22
2019-05-18T03:04:24.920Z,8.25
2019-05-18T03:06:53.943Z,8.30
2019-05-18T03:12:05.923Z,8.36
2019-05-18T03:14:35.086Z,8.34
2019-05-18T03:19:41.327Z,8.38
2019-05-18T03:22:10.373Z,8.41
2019-05-18T03:24:39.173Z,8.37
2019-05-18T03:29:48.563Z,8.39
2019-05-18T03:32:17.284Z,8.36
2019-05-18T03:37:31.888Z,8.46
2019-05-18T03:40:01.347Z,8.42
2019-05-18T03:45:11.424Z,8.53
2019-05-18T03:47:40.087Z,8.47
2019-05-18T03:52:47.221Z,8.43
2019-05-18T03:55:16.310Z,8.41
2019-05-18T03:57:44.950Z,8.44
2019-05-18T04:02:55.070Z,8.52
2019-05-18T04:08:17.306Z,8.47
2019-05-18T04:10:46.050Z,8.37
2019-05-18T04:13:15.097Z,8.31
2019-05-18T04:15:44.107Z,8.38
2019-05-18T04:18:13.184Z,8.40
2019-05-18T04:23:27.867Z,8.54
2019-05-18T04:25:58.305Z,8.53
2019-05-18T04:31:11.025Z,8.69
2019-05-18T04:33:40.020Z,8.70
2019-05-18T04:38:49.835Z,8.84
2019-05-18T04:41:18.629Z,8.79
2019-05-18T04:43:47.651Z,8.83
2019-05-18T04:46:16.697Z,8.88
2019-05-18T04:48:45.825Z,8.94
2019-05-18T04:51:14.813Z,8.89
2019-05-18T04:53:43.422Z,8.94
2019-05-18T04:58:56.064Z,9.13
2019-05-18T05:01:25.434Z,9.14
2019-05-18T05:03:54.663Z,9.27
2019-05-18T05:06:23.485Z,9.35
2019-05-18T05:08:53.027Z,9.44
2019-05-18T05:11:21.887Z,9.54
2019-05-18T05:16:30.854Z,9.81
2019-05-18T05:18:59.890Z,9.84
2019-05-18T05:21:28.805Z,9.89
2019-05-18T05:23:57.458Z,9.98
2019-05-18T05:26:26.691Z,10.13
2019-05-18T05:28:55.588Z,10.17
2019-05-18T05:31:24.307Z,10.32
2019-05-18T05:33:53.145Z,10.39
2019-05-18T05:36:22.617Z,10.46
2019-05-18T05:38:51.617Z,10.55
2019-05-18T05:44:12.082Z,10.77
2019-05-18T05:49:29.445Z,11.07
2019-05-18T05:54:43.841Z,11.41
2019-05-18T05:57:14.743Z,11.44
2019-05-18T06:02:25.966Z,11.50
2019-05-18T06:04:54.975Z,11.68
2019-05-18T06:07:24.274Z,11.78
2019-05-18T06:09:53.782Z,11.84
2019-05-18T06:12:23.248Z,12.08
2019-05-18T06:14:51.900Z,12.12
2019-05-18T06:17:20.685Z,12.09
2019-05-18T06:19:49.463Z,12.09
2019-05-18T06:25:03.697Z,12.49
2019-05-18T06:27:33.291Z,12.40
2019-05-18T06:30:02.393Z,12.59
2019-05-18T06:35:10.329Z,12.83
2019-05-18T06:37:39.138Z,12.95
2019-05-18T06:40:08.970Z,13.16
2019-05-18T06:42:39.105Z,13.20
2019-05-18T06:45:08.972Z,13.45
2019-05-18T06:47:38.217Z,13.59
2019-05-18T06:50:10.973Z,13.77
2019-05-18T06:52:38.225Z,13.77
2019-05-18T06:55:07.029Z,13.76
2019-05-18T06:57:36.862Z,14.03
2019-05-18T07:02:47.213Z,14.19
2019-05-18T07:05:15.864Z,14.26
2019-05-18T07:07:44.484Z,14.38
2019-05-18T07:10:13.165Z,14.49
2019-05-18T07:12:42.223Z,14.73
2019-05-18T07:15:12.089Z,14.49
2019-05-18T07:17:41.236Z,14.96
2019-05-18T07:20:11.224Z,14.87
2019-05-18T07:25:17.959Z,15.29
2019-05-18T07:27:46.670Z,15.37
2019-05-18T07:30:15.799Z,15.49
2019-05-18T07:32:44.516Z,15.47
2019-05-18T07:35:13.712Z,15.67
2019-05-18T07:37:42.401Z,15.92
2019-05-18T07:40:12.003Z,16.06
2019-05-18T07:45:21.688Z,16.39
2019-05-18T07:47:50.454Z,16.29
2019-05-18T07:50:19.310Z,16.44
2019-05-18T07:52:48.025Z,16.67
2019-05-18T07:55:16.742Z,16.56
2019-05-18T07:57:45.383Z,16.87
2019-05-18T08:00:14.260Z,17.03
2019-05-18T08:02:43.266Z,17.17
2019-05-18T08:05:12.693Z,17.35
2019-05-18T08:07:41.811Z,17.30
2019-05-18T08:12:48.260Z,17.77
2019-05-18T08:15:18.307Z,17.81
2019-05-18T08:17:46.999Z,17.95
2019-05-18T08:22:56.024Z,18.53
2019-05-18T08:25:25.107Z,18.62
2019-05-18T08:27:53.828Z,18.59
2019-05-18T08:33:02.335Z,18.66
2019-05-18T08:38:09.893Z,18.54
2019-05-18T08:40:38.947Z,19.02
2019-05-18T08:45:45.250Z,19.36
2019-05-18T08:48:13.901Z,19.19
2019-05-18T08:50:42.601Z,18.99
2019-05-18T08:53:11.990Z,18.63
2019-05-18T08:55:40.687Z,19.13
2019-05-18T08:58:09.309Z,18.89
2019-05-18T09:00:38.366Z,19.39
2019-05-18T09:05:45.193Z,20.04
2019-05-18T09:08:14.430Z,20.24
2019-05-18T09:10:43.435Z,19.79
2019-05-18T09:13:12.420Z,19.61
2019-05-18T09:15:41.365Z,20.28
2019-05-18T09:18:10.089Z,19.79
2019-05-18T09:20:39.552Z,20.73
2019-05-18T09:23:08.541Z,20.40
2019-05-18T09:28:16.973Z,19.73
2019-05-18T09:30:46.758Z,20.50
2019-05-18T09:33:15.756Z,20.07
2019-05-18T09:35:45.150Z,19.96
2019-05-18T09:40:51.024Z,20.44
2019-05-18T09:43:19.588Z,20.33
2019-05-18T09:45:48.726Z,20.14
2019-05-18T09:48:17.326Z,20.33
2019-05-18T09:53:29.809Z,19.50
2019-05-18T09:55:57.310Z,20.10
2019-05-18T10:01:03.509Z,20.10
2019-05-18T10:03:32.184Z,20.40
2019-05-18T10:08:38.473Z,21.03
2019-05-18T10:11:07.262Z,19.84
2019-05-18T10:13:36.095Z,21.06
2019-05-18T10:16:04.827Z,20.22
2019-05-18T10:21:13.206Z,20.89
2019-05-18T10:23:41.732Z,21.52
2019-05-18T10:26:10.149Z,21.52
2019-05-18T10:28:38.988Z,21.64
2019-05-18T10:31:08.536Z,21.59
2019-05-18T10:33:37.539Z,21.70
2019-05-18T10:36:06.823Z,21.43
2019-05-18T10:41:12.998Z,21.43
2019-05-18T10:43:41.653Z,20.98
2019-05-18T10:46:10.309Z,21.74
2019-05-18T10:48:40.015Z,22.02
2019-05-18T10:51:08.657Z,23.51
2019-05-18T10:53:37.474Z,22.15
2019-05-18T10:58:45.963Z,22.36
2019-05-18T11:01:14.839Z,22.20
2019-05-18T11:03:44.353Z,20.84
2019-05-18T11:06:13.434Z,21.57
2019-05-18T11:08:42.135Z,20.74
2019-05-18T11:13:49.288Z,21.80
2019-05-18T11:18:57.417Z,21.90
2019-05-18T11:21:26.054Z,22.13
2019-05-18T11:26:34.523Z,22.24
2019-05-18T11:29:03.280Z,22.47
2019-05-18T11:31:32.205Z,22.41
2019-05-18T11:36:38.495Z,21.89
2019-05-18T11:39:07.645Z,22.47
2019-05-18T11:44:16.369Z,21.88
2019-05-18T11:46:45.450Z,21.49
2019-05-18T11:49:14.414Z,21.44
2019-05-18T11:51:43.186Z,20.87
2019-05-18T11:54:12.216Z,21.54
2019-05-18T11:59:18.427Z,20.87
2019-05-18T12:01:47.122Z,21.47
2019-05-18T12:04:16.274Z,21.49
2019-05-18T12:09:27.161Z,21.40
2019-05-18T12:11:56.333Z,20.95
2019-05-18T12:14:26.140Z,21.14
2019-05-18T12:16:55.336Z,21.92
2019-05-18T12:22:04.525Z,22.08
2019-05-18T12:24:33.639Z,22.47
2019-05-18T12:29:39.820Z,22.14
2019-05-18T12:32:08.483Z,22.59
2019-05-18T12:37:22.158Z,22.71
2019-05-18T12:39:52.837Z,23.18
2019-05-18T12:42:22.005Z,22.49
2019-05-18T12:44:51.059Z,23.24
2019-05-18T12:47:20.859Z,23.86
2019-05-18T12:52:30.083Z,22.78
2019-05-18T12:57:36.374Z,22.54
2019-05-18T13:00:06.154Z,22.20
2019-05-18T13:05:12.910Z,24.16
2019-05-18T13:07:42.002Z,22.80
2019-05-18T13:10:11.649Z,22.73
2019-05-18T13:12:40.344Z,23.06
2019-05-18T13:17:47.000Z,23.07
2019-05-18T13:20:19.238Z,23.13
2019-05-18T13:22:47.871Z,22.91
2019-05-18T13:25:16.957Z,24.00
2019-05-18T13:30:26.566Z,23.73
2019-05-18T13:32:55.258Z,23.34
2019-05-18T13:35:24.000Z,22.87
2019-05-18T13:37:52.752Z,23.06
2019-05-18T13:40:23.276Z,22.81
2019-05-18T13:42:52.265Z,22.74
2019-05-18T13:48:00.650Z,22.65
2019-05-18T13:50:29.357Z,22.20
2019-05-18T13:55:36.223Z,22.50
2019-05-18T13:58:04.969Z,23.46
2019-05-18T14:00:33.615Z,22.56
2019-05-18T14:03:02.990Z,22.30
2019-05-18T14:08:16.124Z,22.11
2019-05-18T14:10:45.189Z,21.55
2019-05-18T14:13:14.144Z,21.64
2019-05-18T14:18:26.694Z,21.75
2019-05-18T14:20:55.688Z,22.47
2019-05-18T14:23:24.666Z,22.73
2019-05-18T14:25:53.343Z,23.26
2019-05-18T14:28:22.453Z,22.88
2019-05-18T14:30:53.068Z,23.28
2019-05-18T14:33:21.828Z,23.31
2019-05-18T14:38:28.012Z,21.83
2019-05-18T14:40:56.675Z,21.36
2019-05-18T14:43:25.881Z,21.58
2019-05-18T14:45:54.855Z,21.91
2019-05-18T14:51:02.729Z,22.55
2019-05-18T14:53:31.335Z,22.98
2019-05-18T14:56:01.048Z,22.90
2019-05-18T15:01:10.527Z,22.78
2019-05-18T15:03:39.407Z,22.23
2019-05-18T15:06:08.028Z,22.57
2019-05-18T15:08:37.589Z,23.12
2019-05-18T15:11:06.295Z,23.25
2019-05-18T15:13:35.361Z,22.62
2019-05-18T15:18:45.312Z,22.84
2019-05-18T15:21:13.974Z,22.77
2019-05-18T15:23:43.003Z,22.29
2019-05-18T15:26:11.687Z,22.53
2019-05-18T15:28:40.385Z,22.86
2019-05-18T15:31:10.514Z,23.04
2019-05-18T15:36:16.689Z,22.29
2019-05-18T15:38:46.094Z,23.07
2019-05-18T15:41:15.617Z,23.33
2019-05-18T15:43:44.242Z,23.65
2019-05-18T15:46:12.904Z,23.12
2019-05-18T15:51:19.108Z,22.12
2019-05-18T15:53:48.228Z,21.97
2019-05-18T15:56:17.343Z,21.79
2019-05-18T15:58:46.417Z,21.50
2019-05-18T16:01:15.422Z,21.88
2019-05-18T16:03:44.067Z,21.82
2019-05-18T16:08:56.494Z,22.02
2019-05-18T16:11:24.956Z,21.71
2019-05-18T16:13:53.886Z,22.14
2019-05-18T16:16:22.607Z,22.23
2019-05-18T16:18:52.378Z,22.00
2019-05-18T16:21:21.058Z,22.59
2019-05-18T16:23:50.384Z,22.34
2019-05-18T16:26:21.670Z,22.31
2019-05-18T16:28:49.684Z,22.53
2019-05-18T16:31:18.424Z,22.55
2019-05-18T16:33:48.098Z,22.52
2019-05-18T16:38:56.618Z,22.31
2019-05-18T16:41:25.706Z,21.97
2019-05-18T16:43:54.328Z,22.18
2019-05-18T16:46:23.532Z,22.15
2019-05-18T16:48:52.895Z,22.00
2019-05-18T16:51:22.233Z,22.03
2019-05-18T16:53:50.960Z,22.09
2019-05-18T16:56:19.661Z,21.72
2019-05-18T17:01:27.310Z,21.26
2019-05-18T17:03:55.972Z,21.18
2019-05-18T17:06:24.945Z,21.29
2019-05-18T17:08:55.059Z,21.49
2019-05-18T17:14:02.948Z,21.91
2019-05-18T17:16:31.632Z,21.66
2019-05-18T17:19:00.692Z,21.39
2019-05-18T17:21:29.787Z,21.42
2019-05-18T17:23:58.570Z,21.43
2019-05-18T17:26:27.512Z,21.18
2019-05-18T17:28:56.190Z,21.27
2019-05-18T17:31:24.928Z,21.15
2019-05-18T17:33:53.876Z,21.15
2019-05-18T17:36:24.104Z,21.08
2019-05-18T17:41:31.562Z,20.90
2019-05-18T17:44:00.348Z,20.91
2019-05-18T17:49:06.545Z,20.58
2019-05-18T17:51:35.163Z,20.74
2019-05-18T17:54:04.209Z,20.62
2019-05-18T17:56:32.894Z,20.82
2019-05-18T17:59:01.527Z,20.88
2019-05-18T18:04:08.674Z,20.56
2019-05-18T18:09:15.854Z,20.51
2019-05-18T18:11:44.820Z,20.60
2019-05-18T18:16:52.608Z,20.33
2019-05-18T18:21:59.114Z,20.04
2019-05-18T18:24:27.765Z,19.95
2019-05-18T18:26:57.066Z,19.81
2019-05-18T18:29:26.060Z,19.84
2019-05-18T18:31:54.668Z,19.75
2019-05-18T18:34:23.319Z,19.77
2019-05-18T18:36:52.233Z,19.64
2019-05-18T18:39:20.924Z,19.59
2019-05-18T18:41:49.838Z,19.52
2019-05-18T18:44:18.814Z,19.41
2019-05-18T18:49:25.478Z,19.38
2019-05-18T18:51:54.470Z,19.24
2019-05-18T18:57:04.315Z,19.20
2019-05-18T18:59:33.386Z,19.21
2019-05-18T19:02:02.051Z,19.23
2019-05-18T19:07:09.769Z,19.00
2019-05-18T19:09:38.922Z,18.84
2019-05-18T19:12:07.560Z,18.74
2019-05-18T19:14:36.716Z,18.92
2019-05-18T19:17:05.704Z,18.83
2019-05-18T19:19:34.810Z,18.69
2019-05-18T19:22:03.525Z,18.47
2019-05-18T19:27:17.174Z,18.16
2019-05-18T19:29:45.827Z,18.04
2019-05-18T19:32:14.855Z,18.04
2019-05-18T19:34:43.856Z,18.14
2019-05-18T19:37:12.557Z,17.96
2019-05-18T19:39:49.356Z,17.92
2019-05-18T19:42:18.134Z,17.71
2019-05-18T19:44:46.874Z,17.61
2019-05-18T19:47:15.467Z,17.60
2019-05-18T19:52:24.956Z,17.25
2019-05-18T19:54:53.667Z,17.20
2019-05-18T19:57:22.331Z,17.14
2019-05-18T20:02:30.990Z,16.95
2019-05-18T20:07:43.175Z,16.85
2019-05-18T20:12:58.248Z,16.51
2019-05-18T20:18:04.411Z,16.24
2019-05-18T20:23:11.275Z,15.65
2019-05-18T20:28:23.921Z,15.65
2019-05-18T20:30:51.527Z,15.40
2019-05-18T20:35:58.828Z,15.84
2019-05-18T20:38:28.367Z,15.75
2019-05-18T20:40:57.562Z,15.16
2019-05-18T20:46:05.886Z,15.46
2019-05-18T20:48:34.613Z,15.21
2019-05-18T20:51:03.628Z,15.24
2019-05-18T20:53:32.264Z,15.35
2019-05-18T20:56:01.414Z,15.28
2019-05-18T21:01:07.865Z,15.15
2019-05-18T21:03:36.908Z,14.91
2019-05-18T21:06:07.521Z,14.67
2019-05-18T21:08:36.508Z,14.46
2019-05-18T21:11:05.142Z,14.68
2019-05-18T21:16:17.268Z,14.15
2019-05-18T21:18:45.916Z,14.08
2019-05-18T21:21:14.639Z,14.03
2019-05-18T21:23:43.320Z,14.28
2019-05-18T21:26:11.985Z,14.36
2019-05-18T21:31:19.358Z,13.90
2019-05-18T21:33:48.120Z,13.73
2019-05-18T21:36:16.778Z,13.54
2019-05-18T21:41:23.828Z,13.68
2019-05-18T21:43:52.439Z,13.75
2019-05-18T21:49:09.210Z,14.04
2019-05-18T21:51:38.619Z,14.05
2019-05-18T21:54:07.598Z,13.89
2019-05-18T21:59:16.500Z,13.74
2019-05-18T22:04:26.162Z,13.48
2019-05-18T22:06:55.690Z,13.52
2019-05-18T22:12:04.350Z,13.57
2019-05-18T22:14:33.401Z,13.18
2019-05-18T22:17:02.531Z,13.22
2019-05-18T22:19:31.256Z,13.24
2019-05-18T22:21:59.905Z,13.06
2019-05-18T22:24:28.544Z,13.05
2019-05-18T22:26:57.244Z,13.21
2019-05-18T22:29:26.518Z,13.04
2019-05-18T22:31:55.495Z,13.04
2019-05-18T22:34:24.191Z,12.62
2019-05-18T22:36:52.942Z,12.76
2019-05-18T22:42:11.029Z,12.72
2019-05-18T22:44:39.836Z,12.57
2019-05-18T22:47:08.449Z,12.35
2019-05-18T22:49:37.111Z,12.39
2019-05-18T22:52:05.773Z,12.70
2019-05-18T22:54:34.486Z,12.49
2019-05-18T22:57:03.530Z,12.39
2019-05-18T22:59:32.849Z,12.60
2019-05-18T23:02:01.527Z,12.63
2019-05-18T23:04:30.641Z,12.51
2019-05-18T23:06:59.690Z,12.60
2019-05-18T23:09:30.944Z,12.27
2019-05-18T23:12:05.554Z,12.18
2019-05-18T23:14:34.153Z,12.32
2019-05-18T23:17:03.363Z,12.12
2019-05-18T23:19:33.127Z,12.16
2019-05-18T23:22:02.885Z,12.00
2019-05-18T23:24:32.689Z,11.93
2019-05-18T23:29:40.092Z,11.49
2019-05-18T23:32:08.815Z,11.51
2019-05-18T23:34:38.034Z,11.25
2019-05-18T23:37:07.172Z,11.40
2019-05-18T23:39:36.681Z,11.60
2019-05-18T23:42:05.655Z,11.52
2019-05-18T23:44:34.749Z,11.46
2019-05-18T23:47:04.436Z,11.62
2019-05-18T23:49:33.172Z,11.19
2019-05-18T23:54:41.674Z,11.40
2019-05-18T23:57:11.193Z,11.57
